createdAt,value
2023-01-30T00:01:16.818Z,28.50
2023-01-30T00:03:44.011Z,30.02
2023-01-30T00:06:11.695Z,29.48
2023-01-30T00:08:39.380Z,30.08
2023-01-30T00:11:07.176Z,28.00
2023-01-30T00:13:34.762Z,28.50
2023-01-30T00:16:02.160Z,28.63
2023-01-30T00:18:29.426Z,28.00
2023-01-30T00:21:00.414Z,28.52
2023-01-30T00:23:27.922Z,29.45
2023-01-30T00:25:55.613Z,30.20
2023-01-30T00:28:22.977Z,29.48
2023-01-30T00:30:50.744Z,29.92
2023-01-30T00:33:18.398Z,27.67
2023-01-30T00:35:46.943Z,30.90
2023-01-30T00:38:14.476Z,31.08
2023-01-30T00:40:41.688Z,30.10
2023-01-30T00:43:30.106Z,29.00
2023-01-30T00:46:15.924Z,30.00
2023-01-30T00:48:43.007Z,27.00
2023-01-30T00:51:11.139Z,29.98
2023-01-30T00:53:38.179Z,29.77
2023-01-30T00:56:05.456Z,28.73
2023-01-30T00:58:33.669Z,30.80
2023-01-30T01:01:00.697Z,30.63
2023-01-30T01:03:27.710Z,29.05
2023-01-30T01:05:55.778Z,30.17
2023-01-30T01:08:22.866Z,29.63
2023-01-30T01:10:49.886Z,31.00
2023-01-30T01:13:16.955Z,30.67
2023-01-30T01:15:43.962Z,31.85
2023-01-30T01:18:11.021Z,30.35
2023-01-30T01:20:38.048Z,29.88
2023-01-30T01:23:05.169Z,30.50
2023-01-30T01:25:32.291Z,31.08
2023-01-30T01:27:59.343Z,30.13
2023-01-30T01:30:26.485Z,32.17
2023-01-30T01:32:53.608Z,31.33
2023-01-30T01:35:20.670Z,30.40
2023-01-30T01:37:47.728Z,29.30
2023-01-30T01:40:40.255Z,29.38
2023-01-30T01:43:17.815Z,30.38
2023-01-30T01:45:45.874Z,32.15
2023-01-30T01:48:16.190Z,30.92
2023-01-30T01:50:47.514Z,29.17
2023-01-30T01:53:16.793Z,32.25
2023-01-30T01:55:45.674Z,29.40
2023-01-30T01:58:16.205Z,30.02
2023-01-30T02:00:43.448Z,30.15
2023-01-30T02:03:16.183Z,29.30
2023-01-30T02:05:44.509Z,30.80
2023-01-30T02:08:15.864Z,32.13
2023-01-30T02:11:05.876Z,28.65
2023-01-30T02:13:33.414Z,32.03
2023-01-30T02:16:01.589Z,30.50
2023-01-30T02:18:32.641Z,30.00
2023-01-30T02:21:05.407Z,32.53
2023-01-30T02:23:38.271Z,24.42
2023-01-30T02:26:16.305Z,22.85
2023-01-30T02:29:01.032Z,31.48
2023-01-30T02:31:30.885Z,30.25
2023-01-30T02:34:07.137Z,30.50
2023-01-30T02:36:52.397Z,32.20
2023-01-30T02:39:22.151Z,31.40
2023-01-30T02:41:53.461Z,31.85
2023-01-30T02:44:43.825Z,33.13
2023-01-30T02:47:10.824Z,30.45
2023-01-30T02:49:47.689Z,29.80
2023-01-30T02:52:16.759Z,31.65
2023-01-30T02:54:44.340Z,31.17
2023-01-30T02:57:21.647Z,30.45
2023-01-30T02:59:50.039Z,31.65
2023-01-30T03:02:37.456Z,28.98
2023-01-30T03:05:07.223Z,33.03
2023-01-30T03:07:52.758Z,31.95
2023-01-30T03:10:24.660Z,31.77
2023-01-30T03:12:59.660Z,29.73
2023-01-30T03:15:26.882Z,33.55
2023-01-30T03:17:55.112Z,30.98
2023-01-30T03:20:22.264Z,29.52
2023-01-30T03:22:49.363Z,30.33
2023-01-30T03:25:20.815Z,30.60
2023-01-30T03:27:48.510Z,31.88
2023-01-30T03:30:15.616Z,31.17
2023-01-30T03:32:42.639Z,30.48
2023-01-30T03:35:09.868Z,30.58
2023-01-30T03:37:36.904Z,33.20
2023-01-30T03:40:04.429Z,34.30
2023-01-30T03:42:31.645Z,31.80
2023-01-30T03:44:58.707Z,31.35
2023-01-30T03:47:25.709Z,32.83
2023-01-30T03:49:52.719Z,32.15
2023-01-30T03:52:20.260Z,29.40
2023-01-30T03:54:47.329Z,33.28
2023-01-30T03:57:14.423Z,31.95
2023-01-30T03:59:41.453Z,32.58
2023-01-30T04:02:08.644Z,31.17
2023-01-30T04:04:36.106Z,31.48
2023-01-30T04:07:03.326Z,30.67
2023-01-30T04:09:30.370Z,30.80
2023-01-30T04:11:57.403Z,31.98
2023-01-30T04:14:24.404Z,28.70
2023-01-30T04:16:51.424Z,31.85
2023-01-30T04:19:18.542Z,31.13
2023-01-30T04:21:45.547Z,29.63
2023-01-30T04:24:12.584Z,31.38
2023-01-30T04:26:39.813Z,30.63
2023-01-30T04:29:07.204Z,30.63
2023-01-30T04:31:34.363Z,30.65
2023-01-30T04:34:01.428Z,30.23
2023-01-30T04:36:31.491Z,30.60
2023-01-30T04:38:58.558Z,30.83
2023-01-30T04:41:25.617Z,30.55
2023-01-30T04:43:52.629Z,30.17
2023-01-30T04:46:19.650Z,28.98
2023-01-30T04:48:46.708Z,31.15
2023-01-30T04:51:13.767Z,29.92
2023-01-30T04:53:40.880Z,31.00
2023-01-30T04:56:08.358Z,30.58
2023-01-30T04:58:35.462Z,30.58
2023-01-30T05:01:25.564Z,27.23
2023-01-30T05:03:53.410Z,29.02
2023-01-30T05:06:20.882Z,29.13
2023-01-30T05:08:55.052Z,27.90
2023-01-30T05:11:22.326Z,31.08
2023-01-30T05:13:49.951Z,28.88
2023-01-30T05:16:17.711Z,29.42
2023-01-30T05:18:45.315Z,29.55
2023-01-30T05:21:14.408Z,28.02
2023-01-30T05:23:41.840Z,27.20
2023-01-30T05:26:08.961Z,26.92
2023-01-30T05:28:36.125Z,25.77
2023-01-30T05:31:07.224Z,26.58
2023-01-30T05:33:34.442Z,27.48
2023-01-30T05:36:01.513Z,26.95
2023-01-30T05:38:28.963Z,25.95
2023-01-30T05:41:06.141Z,27.48
2023-01-30T05:43:33.744Z,24.88
2023-01-30T05:46:01.931Z,23.05
2023-01-30T05:48:29.044Z,26.98
2023-01-30T05:50:57.268Z,25.95
2023-01-30T05:53:25.156Z,23.55
2023-01-30T05:55:56.256Z,25.50
2023-01-30T05:58:23.771Z,25.92
2023-01-30T06:00:51.143Z,24.65
2023-01-30T06:03:18.220Z,25.30
2023-01-30T06:05:45.213Z,25.33
2023-01-30T06:08:12.449Z,24.73
2023-01-30T06:10:39.469Z,25.05
2023-01-30T06:13:06.467Z,24.65
2023-01-30T06:15:33.574Z,24.42
2023-01-30T06:18:00.628Z,25.33
2023-01-30T06:20:27.788Z,25.33
2023-01-30T06:22:54.816Z,22.60
2023-01-30T06:25:21.815Z,24.13
2023-01-30T06:27:48.898Z,23.27
2023-01-30T06:30:16.075Z,23.30
2023-01-30T06:32:43.098Z,23.33
2023-01-30T06:35:10.329Z,23.65
2023-01-30T06:37:37.353Z,22.25
2023-01-30T06:40:04.531Z,22.40
2023-01-30T06:42:31.552Z,22.70
2023-01-30T06:44:58.564Z,23.85
2023-01-30T06:47:25.617Z,17.88
2023-01-30T06:49:52.795Z,21.73
2023-01-30T06:52:19.786Z,22.70
2023-01-30T06:54:46.778Z,21.35
2023-01-30T06:57:13.875Z,23.23
2023-01-30T06:59:40.937Z,21.23
2023-01-30T07:02:08.224Z,20.70
2023-01-30T07:04:35.378Z,22.35
2023-01-30T07:07:02.364Z,21.70
2023-01-30T07:09:29.445Z,21.73
2023-01-30T07:11:56.639Z,18.60
2023-01-30T07:14:23.655Z,20.05
2023-01-30T07:16:50.711Z,21.23
2023-01-30T07:19:17.807Z,21.02
2023-01-30T07:21:44.867Z,20.20
2023-01-30T07:24:11.965Z,20.13
2023-01-30T07:26:38.987Z,19.60
2023-01-30T07:29:06.077Z,19.52
2023-01-30T07:31:33.154Z,18.02
2023-01-30T07:34:00.156Z,18.67
2023-01-30T07:36:27.161Z,17.98
2023-01-30T07:38:54.179Z,18.50
2023-01-30T07:41:21.215Z,15.88
2023-01-30T07:43:49.380Z,17.33
2023-01-30T07:46:16.481Z,17.38
2023-01-30T07:48:44.965Z,15.75
2023-01-30T07:51:12.095Z,16.95
2023-01-30T07:53:39.100Z,17.50
2023-01-30T07:56:09.241Z,17.33
2023-01-30T07:58:36.595Z,16.35
2023-01-30T08:01:03.677Z,17.85
2023-01-30T08:03:30.751Z,12.88
2023-01-30T08:05:57.807Z,16.15
2023-01-30T08:08:24.908Z,17.73
2023-01-30T08:10:52.050Z,17.92
2023-01-30T08:13:19.082Z,15.93
2023-01-30T08:15:46.175Z,15.18
2023-01-30T08:18:13.173Z,16.75
2023-01-30T08:20:40.288Z,17.48
2023-01-30T08:23:07.382Z,13.30
2023-01-30T08:25:35.439Z,15.60
2023-01-30T08:28:02.617Z,15.75
2023-01-30T08:30:30.557Z,17.02
2023-01-30T08:32:58.444Z,17.02
2023-01-30T08:35:25.574Z,17.25
2023-01-30T08:37:52.618Z,16.05
2023-01-30T08:40:20.006Z,13.35
2023-01-30T08:42:47.252Z,15.70
2023-01-30T08:45:14.364Z,17.83
2023-01-30T08:47:41.377Z,16.58
2023-01-30T08:50:08.749Z,16.85
2023-01-30T08:52:35.808Z,11.50
2023-01-30T08:55:02.898Z,15.95
2023-01-30T08:57:29.908Z,16.63
2023-01-30T08:59:56.971Z,15.45
2023-01-30T09:02:24.068Z,16.33
2023-01-30T09:04:51.116Z,13.40
2023-01-30T09:07:18.175Z,15.60
2023-01-30T09:09:45.203Z,16.23
2023-01-30T09:12:12.187Z,15.57
2023-01-30T09:14:39.308Z,13.68
2023-01-30T09:17:06.482Z,15.40
2023-01-30T09:19:35.825Z,14.90
2023-01-30T09:22:02.869Z,17.17
2023-01-30T09:24:30.153Z,15.43
2023-01-30T09:26:58.875Z,17.27
2023-01-30T09:29:29.428Z,16.73
2023-01-30T09:31:56.860Z,15.10
2023-01-30T09:34:27.612Z,15.48
2023-01-30T09:37:00.165Z,15.10
2023-01-30T09:39:27.599Z,16.33
2023-01-30T09:42:07.525Z,14.57
2023-01-30T09:44:34.498Z,14.38
2023-01-30T09:47:24.585Z,14.77
2023-01-30T09:50:08.758Z,13.63
2023-01-30T09:52:58.432Z,14.38
2023-01-30T09:55:27.937Z,12.00
2023-01-30T09:57:55.578Z,13.05
2023-01-30T10:00:29.197Z,12.30
2023-01-30T10:03:12.183Z,13.63
2023-01-30T10:06:02.250Z,12.85
2023-01-30T10:08:38.464Z,12.02
2023-01-30T10:11:14.604Z,11.77
2023-01-30T10:13:41.616Z,12.18
2023-01-30T10:16:16.759Z,9.80
2023-01-30T10:18:58.673Z,11.23
2023-01-30T10:21:28.418Z,13.75
2023-01-30T10:24:00.253Z,12.82
2023-01-30T10:26:29.430Z,12.93
2023-01-30T10:29:07.677Z,9.63
2023-01-30T10:31:42.816Z,9.35
2023-01-30T10:34:19.305Z,11.23
2023-01-30T10:37:09.692Z,11.73
2023-01-30T10:39:54.936Z,9.52
2023-01-30T10:42:42.784Z,11.10
2023-01-30T10:45:16.995Z,9.32
2023-01-30T10:47:49.277Z,9.52
2023-01-30T10:50:16.751Z,10.95
2023-01-30T10:52:54.193Z,8.27
2023-01-30T10:55:40.427Z,10.02
2023-01-30T10:58:16.067Z,8.55
2023-01-30T11:01:01.936Z,8.43
2023-01-30T11:03:34.814Z,9.63
2023-01-30T11:06:18.962Z,7.85
2023-01-30T11:08:46.392Z,9.00
2023-01-30T11:11:30.658Z,10.02
2023-01-30T11:14:08.198Z,10.02
2023-01-30T11:16:55.537Z,11.93
2023-01-30T11:19:31.690Z,9.27
2023-01-30T11:22:02.039Z,11.90
2023-01-30T11:24:33.964Z,8.10
2023-01-30T11:27:11.288Z,6.60
2023-01-30T11:29:41.078Z,9.68
2023-01-30T11:32:19.605Z,7.70
2023-01-30T11:35:01.459Z,8.93
2023-01-30T11:37:32.206Z,8.73
2023-01-30T11:39:59.399Z,9.43
2023-01-30T11:42:30.333Z,5.38
2023-01-30T11:45:15.732Z,9.10
2023-01-30T11:47:57.034Z,8.45
2023-01-30T11:50:31.193Z,6.25
2023-01-30T11:53:02.641Z,8.80
2023-01-30T11:55:34.396Z,7.35
2023-01-30T11:58:02.458Z,6.53
2023-01-30T12:00:39.010Z,8.10
2023-01-30T12:03:07.060Z,8.70
2023-01-30T12:05:35.565Z,8.18
2023-01-30T12:08:31.205Z,8.18
2023-01-30T12:11:03.210Z,8.20
2023-01-30T12:13:39.548Z,8.82
2023-01-30T12:16:21.793Z,9.27
2023-01-30T12:19:12.876Z,7.50
2023-01-30T12:21:44.580Z,8.25
2023-01-30T12:24:18.899Z,8.00
2023-01-30T12:26:55.873Z,8.10
2023-01-30T12:29:29.094Z,7.63
2023-01-30T12:32:05.962Z,6.47
2023-01-30T12:34:33.164Z,6.38
2023-01-30T12:37:20.707Z,7.28
2023-01-30T12:40:06.044Z,7.40
2023-01-30T12:42:43.745Z,9.75
2023-01-30T12:45:24.028Z,7.75
2023-01-30T12:47:51.117Z,7.72
2023-01-30T12:50:32.650Z,7.95
2023-01-30T12:53:18.507Z,7.93
2023-01-30T12:55:45.485Z,7.57
2023-01-30T12:58:16.604Z,6.38
2023-01-30T13:00:55.867Z,6.47
2023-01-30T13:03:37.568Z,7.25
2023-01-30T13:06:23.014Z,6.50
2023-01-30T13:08:53.632Z,6.47
2023-01-30T13:11:42.523Z,5.63
2023-01-30T13:14:15.770Z,8.05
2023-01-30T13:16:52.929Z,6.53
2023-01-30T13:19:25.489Z,7.30
2023-01-30T13:22:12.443Z,6.75
2023-01-30T13:24:52.009Z,7.03
2023-01-30T13:27:20.411Z,7.63
2023-01-30T13:29:48.627Z,8.13
2023-01-30T13:32:19.069Z,8.07
2023-01-30T13:34:47.849Z,6.90
2023-01-30T13:37:16.439Z,6.75
2023-01-30T13:39:43.432Z,5.70
2023-01-30T13:42:29.193Z,6.13
2023-01-30T13:44:57.381Z,7.32
2023-01-30T13:47:34.114Z,7.00
2023-01-30T13:50:20.461Z,6.57
2023-01-30T13:52:57.527Z,5.43
2023-01-30T13:55:24.618Z,6.35
2023-01-30T13:57:56.683Z,5.95
2023-01-30T14:00:29.053Z,6.15
2023-01-30T14:03:04.964Z,6.20
2023-01-30T14:05:50.539Z,6.75
2023-01-30T14:08:22.242Z,6.40
2023-01-30T14:10:49.708Z,6.20
2023-01-30T14:13:20.011Z,6.50
2023-01-30T14:15:57.927Z,5.95
2023-01-30T14:18:31.069Z,6.15
2023-01-30T14:21:22.525Z,5.07
2023-01-30T14:24:00.121Z,4.80
2023-01-30T14:26:45.858Z,5.68
2023-01-30T14:29:12.923Z,6.03
2023-01-30T14:31:49.741Z,6.57
2023-01-30T14:34:37.103Z,6.07
2023-01-30T14:37:05.263Z,6.15
2023-01-30T14:39:40.459Z,6.45
2023-01-30T14:42:27.421Z,6.57
2023-01-30T14:44:57.381Z,5.88
2023-01-30T14:47:32.345Z,6.78
2023-01-30T14:50:03.454Z,5.88
2023-01-30T14:52:35.080Z,6.97
2023-01-30T14:55:02.975Z,6.35
2023-01-30T14:57:34.629Z,6.47
2023-01-30T15:00:15.911Z,6.57
2023-01-30T15:02:49.789Z,6.82
2023-01-30T15:05:20.699Z,5.35
2023-01-30T15:07:50.222Z,6.80
2023-01-30T15:10:36.303Z,6.65
2023-01-30T15:13:09.097Z,8.18
2023-01-30T15:15:41.326Z,8.05
2023-01-30T15:18:11.444Z,7.75
2023-01-30T15:20:45.566Z,7.22
2023-01-30T15:23:26.856Z,7.50
2023-01-30T15:26:14.429Z,8.68
2023-01-30T15:28:41.425Z,8.98
2023-01-30T15:31:14.159Z,7.30
2023-01-30T15:33:45.317Z,6.78
2023-01-30T15:36:35.399Z,7.72
2023-01-30T15:39:06.650Z,8.35
2023-01-30T15:41:39.984Z,8.63
2023-01-30T15:44:14.780Z,8.25
2023-01-30T15:47:00.947Z,8.57
2023-01-30T15:49:28.074Z,9.27
2023-01-30T15:51:55.096Z,9.98
2023-01-30T15:54:24.380Z,8.25
2023-01-30T15:56:51.465Z,9.05
2023-01-30T15:59:26.904Z,9.38
2023-01-30T16:02:04.751Z,9.48
2023-01-30T16:04:32.389Z,9.23
2023-01-30T16:06:59.748Z,8.88
2023-01-30T16:09:27.102Z,9.95
2023-01-30T16:11:54.356Z,10.02
2023-01-30T16:14:22.663Z,8.55
2023-01-30T16:16:49.768Z,8.60
2023-01-30T16:19:29.571Z,9.45
2023-01-30T16:21:59.574Z,9.35
2023-01-30T16:24:29.712Z,9.57
2023-01-30T16:27:01.130Z,8.23
2023-01-30T16:29:29.714Z,9.70
2023-01-30T16:31:57.255Z,8.23
2023-01-30T16:34:34.484Z,9.73
2023-01-30T16:37:08.409Z,7.65
2023-01-30T16:39:36.352Z,8.52
2023-01-30T16:42:05.099Z,8.23
2023-01-30T16:44:33.052Z,9.73
2023-01-30T16:47:05.978Z,8.77
2023-01-30T16:49:32.977Z,9.93
2023-01-30T16:52:01.670Z,9.65
2023-01-30T16:54:30.078Z,8.45
2023-01-30T16:56:58.751Z,9.27
2023-01-30T16:59:30.645Z,9.55
2023-01-30T17:01:59.132Z,10.32
2023-01-30T17:04:31.201Z,10.30
2023-01-30T17:07:04.020Z,10.52
2023-01-30T17:09:34.096Z,9.85
2023-01-30T17:12:01.245Z,10.55
2023-01-30T17:14:32.816Z,10.55
2023-01-30T17:17:00.822Z,10.18
2023-01-30T17:19:28.188Z,10.55
2023-01-30T17:21:57.066Z,10.15
2023-01-30T17:24:25.198Z,11.35
2023-01-30T17:26:54.217Z,9.95
2023-01-30T17:29:41.597Z,10.40
2023-01-30T17:32:11.307Z,10.50
2023-01-30T17:34:40.988Z,10.68
2023-01-30T17:37:10.829Z,9.57
2023-01-30T17:39:37.867Z,10.68
2023-01-30T17:42:06.471Z,10.55
2023-01-30T17:44:33.493Z,9.10
2023-01-30T17:47:00.584Z,8.88
2023-01-30T17:49:27.608Z,9.15
2023-01-30T17:51:55.491Z,9.35
2023-01-30T17:54:22.690Z,9.93
2023-01-30T17:56:52.934Z,9.68
2023-01-30T17:59:20.611Z,9.50
2023-01-30T18:01:48.802Z,7.80
2023-01-30T18:04:16.267Z,9.57
2023-01-30T18:06:44.466Z,8.48
2023-01-30T18:09:19.653Z,8.73
2023-01-30T18:11:47.137Z,10.02
2023-01-30T18:14:14.490Z,8.80
2023-01-30T18:16:41.730Z,8.10
2023-01-30T18:19:10.108Z,8.88
2023-01-30T18:21:42.699Z,9.13
2023-01-30T18:24:09.900Z,9.43
2023-01-30T18:26:36.953Z,8.18
2023-01-30T18:29:04.150Z,8.80
2023-01-30T18:31:31.689Z,8.85
2023-01-30T18:33:58.980Z,8.05
2023-01-30T18:36:26.099Z,8.23
2023-01-30T18:38:53.913Z,7.90
2023-01-30T18:41:22.219Z,8.27
2023-01-30T18:43:54.230Z,8.95
2023-01-30T18:46:21.362Z,8.30
2023-01-30T18:48:48.469Z,9.10
2023-01-30T18:51:15.522Z,7.65
2023-01-30T18:53:43.301Z,8.40
2023-01-30T18:56:11.795Z,8.07
2023-01-30T18:58:39.006Z,8.10
2023-01-30T19:01:14.196Z,7.97
2023-01-30T19:03:41.710Z,7.93
2023-01-30T19:06:10.795Z,7.68
2023-01-30T19:08:38.753Z,7.90
2023-01-30T19:11:29.052Z,8.10
2023-01-30T19:13:56.656Z,7.40
2023-01-30T19:16:24.653Z,8.38
2023-01-30T19:18:52.017Z,8.20
2023-01-30T19:21:19.021Z,8.48
2023-01-30T19:23:46.389Z,8.40
2023-01-30T19:26:13.735Z,8.65
2023-01-30T19:28:44.789Z,8.45
2023-01-30T19:31:16.433Z,8.13
2023-01-30T19:33:44.071Z,8.90
2023-01-30T19:36:21.528Z,7.97
2023-01-30T19:38:49.598Z,8.13
2023-01-30T19:41:17.794Z,7.95
2023-01-30T19:43:45.036Z,8.02
2023-01-30T19:46:12.378Z,8.73
2023-01-30T19:48:39.846Z,6.82
2023-01-30T19:51:14.465Z,7.50
2023-01-30T19:53:42.465Z,7.60
2023-01-30T19:56:10.588Z,7.82
2023-01-30T19:58:38.283Z,7.68
2023-01-30T20:01:12.731Z,7.70
2023-01-30T20:03:40.839Z,6.88
2023-01-30T20:06:13.878Z,7.43
2023-01-30T20:08:41.862Z,7.22
2023-01-30T20:11:09.997Z,6.88
2023-01-30T20:13:37.713Z,6.18
2023-01-30T20:16:08.682Z,6.43
2023-01-30T20:18:37.978Z,5.90
2023-01-30T20:21:06.874Z,7.70
2023-01-30T20:23:34.058Z,5.88
2023-01-30T20:26:03.537Z,6.72
2023-01-30T20:28:30.551Z,6.72
2023-01-30T20:30:57.583Z,6.35
2023-01-30T20:33:24.658Z,5.93
2023-01-30T20:35:51.745Z,6.47
2023-01-30T20:38:18.740Z,7.00
2023-01-30T20:40:47.243Z,6.50
2023-01-30T20:43:14.596Z,5.78
2023-01-30T20:45:41.664Z,6.50
2023-01-30T20:48:08.740Z,6.38
2023-01-30T20:50:35.799Z,6.35
2023-01-30T20:53:02.863Z,6.78
2023-01-30T20:55:29.886Z,4.70
2023-01-30T20:57:56.920Z,6.93
2023-01-30T21:00:23.980Z,6.05
2023-01-30T21:02:51.544Z,5.90
2023-01-30T21:05:19.388Z,6.00
2023-01-30T21:07:46.683Z,5.90
2023-01-30T21:10:13.774Z,6.40
2023-01-30T21:12:40.838Z,6.10
2023-01-30T21:15:08.179Z,5.05
2023-01-30T21:17:35.274Z,6.57
2023-01-30T21:20:02.356Z,7.47
2023-01-30T21:22:29.332Z,6.60
2023-01-30T21:24:56.328Z,6.68
2023-01-30T21:27:23.640Z,5.90
2023-01-30T21:29:50.709Z,5.78
2023-01-30T21:32:18.814Z,6.72
2023-01-30T21:34:45.817Z,6.30
2023-01-30T21:37:31.647Z,7.03
2023-01-30T21:40:17.530Z,5.88
2023-01-30T21:43:03.464Z,6.65
2023-01-30T21:45:30.677Z,7.10
2023-01-30T21:47:57.990Z,6.43
2023-01-30T21:50:27.563Z,6.78
2023-01-30T21:52:54.591Z,7.65
2023-01-30T21:55:21.889Z,6.90
2023-01-30T21:57:49.175Z,6.53
2023-01-30T22:00:16.383Z,6.93
2023-01-30T22:02:43.411Z,6.82
2023-01-30T22:05:10.553Z,6.65
2023-01-30T22:07:37.669Z,6.90
2023-01-30T22:10:04.864Z,7.53
2023-01-30T22:12:32.343Z,7.72
2023-01-30T22:14:59.412Z,7.85
2023-01-30T22:17:26.484Z,7.50
2023-01-30T22:19:54.066Z,8.20
2023-01-30T22:22:22.415Z,7.60
2023-01-30T22:24:49.472Z,8.02
2023-01-30T22:27:17.023Z,7.03
2023-01-30T22:29:44.052Z,8.27
2023-01-30T22:32:11.187Z,7.20
2023-01-30T22:34:38.312Z,7.82
2023-01-30T22:37:05.355Z,6.63
2023-01-30T22:39:32.431Z,7.10
2023-01-30T22:41:59.404Z,6.30
2023-01-30T22:44:26.563Z,7.40
2023-01-30T22:46:53.647Z,5.95
2023-01-30T22:49:20.685Z,6.40
2023-01-30T22:51:47.738Z,5.78
2023-01-30T22:54:15.981Z,6.97
2023-01-30T22:56:44.192Z,6.35
2023-01-30T22:59:11.840Z,5.75
2023-01-30T23:01:39.987Z,5.72
2023-01-30T23:04:08.338Z,5.50
2023-01-30T23:06:36.822Z,6.50
2023-01-30T23:09:04.758Z,5.53
2023-01-30T23:11:31.909Z,6.85
2023-01-30T23:14:04.752Z,4.95
2023-01-30T23:16:32.965Z,6.53
2023-01-30T23:19:00.109Z,5.78
2023-01-30T23:21:28.721Z,5.85
2023-01-30T23:23:57.083Z,5.60
2023-01-30T23:26:25.205Z,4.90
2023-01-30T23:28:52.277Z,6.28
2023-01-30T23:31:20.642Z,5.43
2023-01-30T23:33:47.813Z,6.05
2023-01-30T23:36:15.251Z,5.90
2023-01-30T23:38:42.294Z,5.25
2023-01-30T23:41:14.432Z,6.00
2023-01-30T23:43:42.565Z,5.03
2023-01-30T23:46:10.832Z,5.60
2023-01-30T23:48:37.850Z,6.35
2023-01-30T23:51:05.029Z,5.97
2023-01-30T23:53:32.153Z,5.35
2023-01-30T23:55:59.216Z,4.85
2023-01-30T23:58:26.236Z,5.63
